sensor_id;sensor_type;location;lat;lon;timestamp;P1;durP1;ratioP1;P2;durP2;ratioP2
75768;SDS011;64379;48.888;8.330;2024-01-30T00:01:41;11.43;;;5.32;;
75768;SDS011;64379;48.888;8.330;2024-01-30T00:04:06;15.90;;;6.05;;
75768;SDS011;64379;48.888;8.330;2024-01-30T00:06:32;12.25;;;5.60;;
75768;SDS011;64379;48.888;8.330;2024-01-30T00:08:58;14.57;;;5.60;;
75768;SDS011;64379;48.888;8.330;2024-01-30T00:11:23;14.70;;;5.70;;
75768;SDS011;64379;48.888;8.330;2024-01-30T00:13:50;17.00;;;5.93;;
75768;SDS011;64379;48.888;8.330;2024-01-30T00:16:20;15.77;;;6.22;;
75768;SDS011;64379;48.888;8.330;2024-01-30T00:18:47;16.63;;;6.63;;
75768;SDS011;64379;48.888;8.330;2024-01-30T00:21:12;13.02;;;5.85;;
75768;SDS011;64379;48.888;8.330;2024-01-30T00:23:38;16.15;;;6.75;;
75768;SDS011;64379;48.888;8.330;2024-01-30T00:26:03;15.73;;;5.90;;
75768;SDS011;64379;48.888;8.330;2024-01-30T00:28:30;14.73;;;5.72;;
75768;SDS011;64379;48.888;8.330;2024-01-30T00:30:56;14.77;;;5.97;;
75768;SDS011;64379;48.888;8.330;2024-01-30T00:33:22;15.32;;;5.82;;
75768;SDS011;64379;48.888;8.330;2024-01-30T00:35:47;14.82;;;6.03;;
75768;SDS011;64379;48.888;8.330;2024-01-30T00:38:13;14.80;;;6.30;;
75768;SDS011;64379;48.888;8.330;2024-01-30T00:40:38;14.73;;;6.00;;
75768;SDS011;64379;48.888;8.330;2024-01-30T00:43:04;17.77;;;6.55;;
75768;SDS011;64379;48.888;8.330;2024-01-30T00:45:30;18.25;;;6.97;;
75768;SDS011;64379;48.888;8.330;2024-01-30T00:47:55;16.98;;;6.78;;
75768;SDS011;64379;48.888;8.330;2024-01-30T00:50:21;14.95;;;6.20;;
75768;SDS011;64379;48.888;8.330;2024-01-30T00:52:46;17.00;;;6.90;;
75768;SDS011;64379;48.888;8.330;2024-01-30T00:55:12;14.75;;;6.65;;
75768;SDS011;64379;48.888;8.330;2024-01-30T00:57:39;13.43;;;5.72;;
75768;SDS011;64379;48.888;8.330;2024-01-30T01:00:05;16.48;;;6.10;;
75768;SDS011;64379;48.888;8.330;2024-01-30T01:02:33;15.00;;;5.90;;
75768;SDS011;64379;48.888;8.330;2024-01-30T01:05:00;15.32;;;6.45;;
75768;SDS011;64379;48.888;8.330;2024-01-30T01:07:25;20.77;;;6.40;;
75768;SDS011;64379;48.888;8.330;2024-01-30T01:09:51;14.50;;;5.75;;
75768;SDS011;64379;48.888;8.330;2024-01-30T01:12:16;17.23;;;6.80;;
75768;SDS011;64379;48.888;8.330;2024-01-30T01:14:42;14.95;;;6.22;;
75768;SDS011;64379;48.888;8.330;2024-01-30T01:17:08;19.38;;;7.25;;
75768;SDS011;64379;48.888;8.330;2024-01-30T01:19:33;13.93;;;5.93;;
75768;SDS011;64379;48.888;8.330;2024-01-30T01:21:59;16.15;;;6.60;;
75768;SDS011;64379;48.888;8.330;2024-01-30T01:24:24;20.10;;;5.88;;
75768;SDS011;64379;48.888;8.330;2024-01-30T01:26:50;15.35;;;5.82;;
75768;SDS011;64379;48.888;8.330;2024-01-30T01:29:16;13.18;;;5.82;;
75768;SDS011;64379;48.888;8.330;2024-01-30T01:31:41;11.23;;;5.20;;
75768;SDS011;64379;48.888;8.330;2024-01-30T01:34:11;12.23;;;5.35;;
75768;SDS011;64379;48.888;8.330;2024-01-30T01:36:36;13.65;;;5.35;;
75768;SDS011;64379;48.888;8.330;2024-01-30T01:39:02;16.20;;;5.82;;
75768;SDS011;64379;48.888;8.330;2024-01-30T01:41:34;15.95;;;6.05;;
75768;SDS011;64379;48.888;8.330;2024-01-30T01:44:00;18.65;;;6.10;;
75768;SDS011;64379;48.888;8.330;2024-01-30T01:46:26;13.88;;;6.07;;
75768;SDS011;64379;48.888;8.330;2024-01-30T01:48:54;13.88;;;5.03;;
75768;SDS011;64379;48.888;8.330;2024-01-30T01:51:21;10.85;;;4.95;;
75768;SDS011;64379;48.888;8.330;2024-01-30T01:53:48;12.90;;;5.40;;
75768;SDS011;64379;48.888;8.330;2024-01-30T01:56:13;12.02;;;4.57;;
75768;SDS011;64379;48.888;8.330;2024-01-30T01:58:40;9.98;;;4.32;;
75768;SDS011;64379;48.888;8.330;2024-01-30T02:01:06;17.98;;;5.28;;
75768;SDS011;64379;48.888;8.330;2024-01-30T02:03:33;11.60;;;4.70;;
75768;SDS011;64379;48.888;8.330;2024-01-30T02:05:59;15.85;;;5.20;;
75768;SDS011;64379;48.888;8.330;2024-01-30T02:08:27;10.48;;;4.20;;
75768;SDS011;64379;48.888;8.330;2024-01-30T02:10:53;11.73;;;4.65;;
75768;SDS011;64379;48.888;8.330;2024-01-30T02:13:19;18.80;;;4.32;;
75768;SDS011;64379;48.888;8.330;2024-01-30T02:15:48;8.25;;;3.88;;
75768;SDS011;64379;48.888;8.330;2024-01-30T02:18:15;11.10;;;3.75;;
75768;SDS011;64379;48.888;8.330;2024-01-30T02:20:41;10.40;;;4.30;;
75768;SDS011;64379;48.888;8.330;2024-01-30T02:23:07;12.48;;;4.97;;
75768;SDS011;64379;48.888;8.330;2024-01-30T02:25:35;12.82;;;4.63;;
75768;SDS011;64379;48.888;8.330;2024-01-30T02:28:03;11.75;;;4.13;;
75768;SDS011;64379;48.888;8.330;2024-01-30T02:30:29;11.15;;;4.28;;
75768;SDS011;64379;48.888;8.330;2024-01-30T02:32:54;10.15;;;4.10;;
75768;SDS011;64379;48.888;8.330;2024-01-30T02:35:20;9.30;;;3.95;;
75768;SDS011;64379;48.888;8.330;2024-01-30T02:37:45;9.15;;;3.80;;
75768;SDS011;64379;48.888;8.330;2024-01-30T02:40:11;10.38;;;4.00;;
75768;SDS011;64379;48.888;8.330;2024-01-30T02:42:37;9.38;;;3.97;;
75768;SDS011;64379;48.888;8.330;2024-01-30T02:45:02;10.35;;;4.28;;
75768;SDS011;64379;48.888;8.330;2024-01-30T02:47:28;7.65;;;3.30;;
75768;SDS011;64379;48.888;8.330;2024-01-30T02:49:53;7.72;;;3.22;;
75768;SDS011;64379;48.888;8.330;2024-01-30T02:52:19;9.02;;;3.33;;
75768;SDS011;64379;48.888;8.330;2024-01-30T02:54:45;10.20;;;3.72;;
75768;SDS011;64379;48.888;8.330;2024-01-30T02:57:10;7.50;;;3.00;;
75768;SDS011;64379;48.888;8.330;2024-01-30T02:59:36;8.60;;;3.10;;
75768;SDS011;64379;48.888;8.330;2024-01-30T03:02:01;9.70;;;3.72;;
75768;SDS011;64379;48.888;8.330;2024-01-30T03:04:27;8.60;;;3.13;;
75768;SDS011;64379;48.888;8.330;2024-01-30T03:06:55;8.15;;;3.28;;
75768;SDS011;64379;48.888;8.330;2024-01-30T03:09:20;8.20;;;3.13;;
75768;SDS011;64379;48.888;8.330;2024-01-30T03:11:46;9.70;;;3.65;;
75768;SDS011;64379;48.888;8.330;2024-01-30T03:14:11;7.32;;;2.72;;
75768;SDS011;64379;48.888;8.330;2024-01-30T03:16:37;8.25;;;3.30;;
75768;SDS011;64379;48.888;8.330;2024-01-30T03:19:04;9.40;;;2.90;;
75768;SDS011;64379;48.888;8.330;2024-01-30T03:23:58;6.82;;;2.80;;
75768;SDS011;64379;48.888;8.330;2024-01-30T03:26:24;8.35;;;3.30;;
75768;SDS011;64379;48.888;8.330;2024-01-30T03:28:50;6.38;;;2.40;;
75768;SDS011;64379;48.888;8.330;2024-01-30T03:31:15;7.75;;;2.92;;
75768;SDS011;64379;48.888;8.330;2024-01-30T03:33:41;8.45;;;3.10;;
75768;SDS011;64379;48.888;8.330;2024-01-30T03:36:07;8.07;;;2.70;;
75768;SDS011;64379;48.888;8.330;2024-01-30T03:38:33;5.95;;;2.85;;
75768;SDS011;64379;48.888;8.330;2024-01-30T03:40:59;7.18;;;2.95;;
75768;SDS011;64379;48.888;8.330;2024-01-30T03:43:25;6.60;;;2.60;;
75768;SDS011;64379;48.888;8.330;2024-01-30T03:45:51;6.10;;;2.63;;
75768;SDS011;64379;48.888;8.330;2024-01-30T03:48:17;9.77;;;3.08;;
75768;SDS011;64379;48.888;8.330;2024-01-30T03:50:42;6.60;;;2.60;;
75768;SDS011;64379;48.888;8.330;2024-01-30T03:53:08;6.95;;;3.05;;
75768;SDS011;64379;48.888;8.330;2024-01-30T03:55:34;7.97;;;2.55;;
75768;SDS011;64379;48.888;8.330;2024-01-30T03:57:59;6.80;;;2.65;;
75768;SDS011;64379;48.888;8.330;2024-01-30T04:00:25;7.85;;;3.00;;
75768;SDS011;64379;48.888;8.330;2024-01-30T04:02:51;7.20;;;3.15;;
75768;SDS011;64379;48.888;8.330;2024-01-30T04:05:16;5.78;;;2.53;;
75768;SDS011;64379;48.888;8.330;2024-01-30T04:07:42;7.20;;;2.67;;
75768;SDS011;64379;48.888;8.330;2024-01-30T04:10:09;6.38;;;2.65;;
75768;SDS011;64379;48.888;8.330;2024-01-30T04:12:35;9.10;;;2.70;;
75768;SDS011;64379;48.888;8.330;2024-01-30T04:15:01;7.35;;;2.83;;
75768;SDS011;64379;48.888;8.330;2024-01-30T04:17:28;8.82;;;3.00;;
75768;SDS011;64379;48.888;8.330;2024-01-30T04:19:54;5.60;;;2.30;;
75768;SDS011;64379;48.888;8.330;2024-01-30T04:22:20;6.03;;;2.65;;
75768;SDS011;64379;48.888;8.330;2024-01-30T04:24:46;6.95;;;2.60;;
75768;SDS011;64379;48.888;8.330;2024-01-30T04:27:11;7.13;;;2.88;;
75768;SDS011;64379;48.888;8.330;2024-01-30T04:29:37;7.22;;;2.50;;
75768;SDS011;64379;48.888;8.330;2024-01-30T04:32:03;5.95;;;2.25;;
75768;SDS011;64379;48.888;8.330;2024-01-30T04:34:29;8.07;;;2.60;;
75768;SDS011;64379;48.888;8.330;2024-01-30T04:36:55;6.47;;;2.60;;
75768;SDS011;64379;48.888;8.330;2024-01-30T04:39:20;6.57;;;2.58;;
75768;SDS011;64379;48.888;8.330;2024-01-30T04:41:46;7.55;;;2.55;;
75768;SDS011;64379;48.888;8.330;2024-01-30T04:44:11;6.30;;;2.38;;
75768;SDS011;64379;48.888;8.330;2024-01-30T04:46:37;6.70;;;2.85;;
75768;SDS011;64379;48.888;8.330;2024-01-30T04:49:03;7.07;;;2.88;;
75768;SDS011;64379;48.888;8.330;2024-01-30T04:51:28;7.03;;;2.90;;
75768;SDS011;64379;48.888;8.330;2024-01-30T04:53:54;6.93;;;2.97;;
75768;SDS011;64379;48.888;8.330;2024-01-30T04:56:20;8.07;;;2.90;;
75768;SDS011;64379;48.888;8.330;2024-01-30T04:58:46;7.00;;;2.80;;
75768;SDS011;64379;48.888;8.330;2024-01-30T05:01:18;9.38;;;2.60;;
75768;SDS011;64379;48.888;8.330;2024-01-30T05:03:43;5.60;;;2.45;;
75768;SDS011;64379;48.888;8.330;2024-01-30T05:06:09;7.82;;;3.25;;
75768;SDS011;64379;48.888;8.330;2024-01-30T05:08:35;6.90;;;2.30;;
75768;SDS011;64379;48.888;8.330;2024-01-30T05:11:06;9.35;;;2.90;;
75768;SDS011;64379;48.888;8.330;2024-01-30T05:13:32;6.40;;;2.75;;
75768;SDS011;64379;48.888;8.330;2024-01-30T05:15:58;6.10;;;2.40;;
75768;SDS011;64379;48.888;8.330;2024-01-30T05:18:24;6.72;;;2.33;;
75768;SDS011;64379;48.888;8.330;2024-01-30T05:20:50;5.30;;;2.40;;
75768;SDS011;64379;48.888;8.330;2024-01-30T05:23:16;6.38;;;2.33;;
75768;SDS011;64379;48.888;8.330;2024-01-30T05:25:41;5.35;;;2.50;;
75768;SDS011;64379;48.888;8.330;2024-01-30T05:28:07;7.40;;;2.50;;
75768;SDS011;64379;48.888;8.330;2024-01-30T05:30:33;5.70;;;2.45;;
75768;SDS011;64379;48.888;8.330;2024-01-30T05:32:58;6.45;;;2.58;;
75768;SDS011;64379;48.888;8.330;2024-01-30T05:35:24;6.70;;;2.53;;
75768;SDS011;64379;48.888;8.330;2024-01-30T05:37:50;6.43;;;2.55;;
75768;SDS011;64379;48.888;8.330;2024-01-30T05:40:15;6.22;;;2.70;;
75768;SDS011;64379;48.888;8.330;2024-01-30T05:42:41;6.57;;;2.40;;
75768;SDS011;64379;48.888;8.330;2024-01-30T05:45:07;5.82;;;2.55;;
75768;SDS011;64379;48.888;8.330;2024-01-30T05:47:34;8.65;;;2.50;;
75768;SDS011;64379;48.888;8.330;2024-01-30T05:50:00;6.00;;;2.30;;
75768;SDS011;64379;48.888;8.330;2024-01-30T05:52:25;4.50;;;2.00;;
75768;SDS011;64379;48.888;8.330;2024-01-30T05:54:51;6.88;;;1.98;;
75768;SDS011;64379;48.888;8.330;2024-01-30T05:57:17;6.75;;;2.45;;
75768;SDS011;64379;48.888;8.330;2024-01-30T05:59:42;10.73;;;3.67;;
75768;SDS011;64379;48.888;8.330;2024-01-30T06:02:10;7.47;;;3.08;;
75768;SDS011;64379;48.888;8.330;2024-01-30T06:04:36;8.90;;;3.13;;
75768;SDS011;64379;48.888;8.330;2024-01-30T06:07:02;6.50;;;2.35;;
75768;SDS011;64379;48.888;8.330;2024-01-30T06:09:27;5.85;;;2.42;;
75768;SDS011;64379;48.888;8.330;2024-01-30T06:11:54;6.97;;;2.85;;
75768;SDS011;64379;48.888;8.330;2024-01-30T06:14:20;7.43;;;3.05;;
75768;SDS011;64379;48.888;8.330;2024-01-30T06:16:45;8.23;;;2.80;;
75768;SDS011;64379;48.888;8.330;2024-01-30T06:19:11;6.82;;;3.20;;
75768;SDS011;64379;48.888;8.330;2024-01-30T06:21:37;10.23;;;3.55;;
75768;SDS011;64379;48.888;8.330;2024-01-30T06:24:03;10.00;;;3.70;;
75768;SDS011;64379;48.888;8.330;2024-01-30T06:26:29;8.93;;;4.10;;
75768;SDS011;64379;48.888;8.330;2024-01-30T06:28:55;11.98;;;4.00;;
75768;SDS011;64379;48.888;8.330;2024-01-30T06:31:20;7.15;;;3.30;;
75768;SDS011;64379;48.888;8.330;2024-01-30T06:33:47;8.32;;;3.30;;
75768;SDS011;64379;48.888;8.330;2024-01-30T06:36:12;7.72;;;3.05;;
75768;SDS011;64379;48.888;8.330;2024-01-30T06:38:38;9.50;;;4.00;;
75768;SDS011;64379;48.888;8.330;2024-01-30T06:41:04;16.67;;;5.60;;
75768;SDS011;64379;48.888;8.330;2024-01-30T06:43:29;8.18;;;3.88;;
75768;SDS011;64379;48.888;8.330;2024-01-30T06:45:55;8.77;;;3.63;;
75768;SDS011;64379;48.888;8.330;2024-01-30T06:48:21;6.95;;;2.70;;
75768;SDS011;64379;48.888;8.330;2024-01-30T06:50:46;7.25;;;2.38;;
75768;SDS011;64379;48.888;8.330;2024-01-30T06:53:13;8.07;;;2.60;;
75768;SDS011;64379;48.888;8.330;2024-01-30T06:55:38;5.18;;;2.33;;
75768;SDS011;64379;48.888;8.330;2024-01-30T06:58:04;6.82;;;2.38;;
75768;SDS011;64379;48.888;8.330;2024-01-30T07:00:29;5.50;;;2.13;;
75768;SDS011;64379;48.888;8.330;2024-01-30T07:02:55;6.47;;;2.67;;
75768;SDS011;64379;48.888;8.330;2024-01-30T07:05:21;6.13;;;2.50;;
75768;SDS011;64379;48.888;8.330;2024-01-30T07:07:47;5.65;;;2.22;;
75768;SDS011;64379;48.888;8.330;2024-01-30T07:10:13;6.00;;;2.35;;
75768;SDS011;64379;48.888;8.330;2024-01-30T07:12:38;7.75;;;2.60;;
75768;SDS011;64379;48.888;8.330;2024-01-30T07:15:04;6.22;;;2.20;;
75768;SDS011;64379;48.888;8.330;2024-01-30T07:17:33;5.32;;;2.35;;
75768;SDS011;64379;48.888;8.330;2024-01-30T07:19:59;6.85;;;2.25;;
75768;SDS011;64379;48.888;8.330;2024-01-30T07:22:25;7.45;;;2.45;;
75768;SDS011;64379;48.888;8.330;2024-01-30T07:24:50;6.28;;;2.40;;
75768;SDS011;64379;48.888;8.330;2024-01-30T07:27:17;5.95;;;2.28;;
75768;SDS011;64379;48.888;8.330;2024-01-30T07:29:43;14.18;;;5.53;;
75768;SDS011;64379;48.888;8.330;2024-01-30T07:32:09;6.65;;;3.00;;
75768;SDS011;64379;48.888;8.330;2024-01-30T07:34:34;7.60;;;2.80;;
75768;SDS011;64379;48.888;8.330;2024-01-30T07:37:01;6.90;;;3.30;;
75768;SDS011;64379;48.888;8.330;2024-01-30T07:39:27;6.28;;;2.70;;
75768;SDS011;64379;48.888;8.330;2024-01-30T07:41:53;9.23;;;2.97;;
75768;SDS011;64379;48.888;8.330;2024-01-30T07:44:18;7.88;;;3.13;;
75768;SDS011;64379;48.888;8.330;2024-01-30T07:46:44;9.38;;;2.83;;
75768;SDS011;64379;48.888;8.330;2024-01-30T07:49:09;5.63;;;2.67;;
75768;SDS011;64379;48.888;8.330;2024-01-30T07:51:35;7.82;;;3.00;;
75768;SDS011;64379;48.888;8.330;2024-01-30T07:54:01;6.22;;;2.63;;
75768;SDS011;64379;48.888;8.330;2024-01-30T07:56:26;9.57;;;2.67;;
75768;SDS011;64379;48.888;8.330;2024-01-30T07:58:52;9.70;;;2.95;;
75768;SDS011;64379;48.888;8.330;2024-01-30T08:01:18;7.75;;;3.47;;
75768;SDS011;64379;48.888;8.330;2024-01-30T08:03:44;8.32;;;3.40;;
75768;SDS011;64379;48.888;8.330;2024-01-30T08:06:09;15.35;;;6.80;;
75768;SDS011;64379;48.888;8.330;2024-01-30T08:08:35;10.77;;;4.45;;
75768;SDS011;64379;48.888;8.330;2024-01-30T08:11:01;7.50;;;3.63;;
75768;SDS011;64379;48.888;8.330;2024-01-30T08:13:27;11.13;;;4.88;;
75768;SDS011;64379;48.888;8.330;2024-01-30T08:15:52;10.77;;;4.28;;
75768;SDS011;64379;48.888;8.330;2024-01-30T08:18:18;9.63;;;4.25;;
75768;SDS011;64379;48.888;8.330;2024-01-30T08:20:43;9.95;;;4.40;;
75768;SDS011;64379;48.888;8.330;2024-01-30T08:23:09;8.95;;;3.65;;
75768;SDS011;64379;48.888;8.330;2024-01-30T08:25:35;7.35;;;3.20;;
75768;SDS011;64379;48.888;8.330;2024-01-30T08:28:01;7.43;;;2.45;;
75768;SDS011;64379;48.888;8.330;2024-01-30T08:30:27;6.43;;;2.90;;
75768;SDS011;64379;48.888;8.330;2024-01-30T08:32:52;7.55;;;3.35;;
75768;SDS011;64379;48.888;8.330;2024-01-30T08:35:18;6.75;;;3.20;;
75768;SDS011;64379;48.888;8.330;2024-01-30T08:37:44;8.52;;;3.53;;
75768;SDS011;64379;48.888;8.330;2024-01-30T08:40:09;9.43;;;4.10;;
75768;SDS011;64379;48.888;8.330;2024-01-30T08:42:35;8.32;;;3.70;;
75768;SDS011;64379;48.888;8.330;2024-01-30T08:45:01;9.70;;;3.88;;
75768;SDS011;64379;48.888;8.330;2024-01-30T08:47:27;7.68;;;3.28;;
75768;SDS011;64379;48.888;8.330;2024-01-30T08:49:52;8.05;;;3.35;;
75768;SDS011;64379;48.888;8.330;2024-01-30T08:52:18;8.07;;;3.45;;
75768;SDS011;64379;48.888;8.330;2024-01-30T08:54:44;8.90;;;3.47;;
75768;SDS011;64379;48.888;8.330;2024-01-30T08:57:09;8.10;;;3.28;;
75768;SDS011;64379;48.888;8.330;2024-01-30T08:59:35;8.70;;;3.10;;
75768;SDS011;64379;48.888;8.330;2024-01-30T09:02:00;8.40;;;3.33;;
75768;SDS011;64379;48.888;8.330;2024-01-30T09:04:26;6.70;;;2.85;;
75768;SDS011;64379;48.888;8.330;2024-01-30T09:06:52;8.27;;;3.20;;
75768;SDS011;64379;48.888;8.330;2024-01-30T09:09:17;6.93;;;3.22;;
75768;SDS011;64379;48.888;8.330;2024-01-30T09:11:43;7.43;;;3.65;;
75768;SDS011;64379;48.888;8.330;2024-01-30T09:14:09;8.13;;;3.47;;
75768;SDS011;64379;48.888;8.330;2024-01-30T09:16:34;7.65;;;3.22;;
75768;SDS011;64379;48.888;8.330;2024-01-30T09:19:00;6.75;;;3.28;;
75768;SDS011;64379;48.888;8.330;2024-01-30T09:21:26;6.80;;;3.03;;
75768;SDS011;64379;48.888;8.330;2024-01-30T09:23:53;8.07;;;3.20;;
75768;SDS011;64379;48.888;8.330;2024-01-30T09:26:19;9.75;;;3.13;;
75768;SDS011;64379;48.888;8.330;2024-01-30T09:28:45;6.95;;;2.97;;
75768;SDS011;64379;48.888;8.330;2024-01-30T09:31:11;8.48;;;3.83;;
75768;SDS011;64379;48.888;8.330;2024-01-30T09:33:37;9.18;;;3.53;;
75768;SDS011;64379;48.888;8.330;2024-01-30T09:36:03;6.38;;;3.22;;
75768;SDS011;64379;48.888;8.330;2024-01-30T09:38:30;6.90;;;3.38;;
75768;SDS011;64379;48.888;8.330;2024-01-30T09:40:56;8.80;;;3.63;;
75768;SDS011;64379;48.888;8.330;2024-01-30T09:43:25;9.85;;;4.10;;
75768;SDS011;64379;48.888;8.330;2024-01-30T09:45:57;9.27;;;4.22;;
75768;SDS011;64379;48.888;8.330;2024-01-30T09:48:24;10.27;;;3.80;;
75768;SDS011;64379;48.888;8.330;2024-01-30T09:50:51;9.25;;;4.35;;
75768;SDS011;64379;48.888;8.330;2024-01-30T09:53:18;13.40;;;6.07;;
75768;SDS011;64379;48.888;8.330;2024-01-30T09:55:45;11.05;;;4.40;;
75768;SDS011;64379;48.888;8.330;2024-01-30T09:58:12;10.30;;;4.40;;
75768;SDS011;64379;48.888;8.330;2024-01-30T10:00:38;8.35;;;4.10;;
75768;SDS011;64379;48.888;8.330;2024-01-30T10:03:04;11.32;;;4.15;;
75768;SDS011;64379;48.888;8.330;2024-01-30T10:05:30;11.52;;;4.45;;
75768;SDS011;64379;48.888;8.330;2024-01-30T10:07:58;11.25;;;4.80;;
75768;SDS011;64379;48.888;8.330;2024-01-30T10:10:24;12.27;;;5.13;;
75768;SDS011;64379;48.888;8.330;2024-01-30T10:12:50;10.88;;;5.40;;
75768;SDS011;64379;48.888;8.330;2024-01-30T10:15:17;13.13;;;5.78;;
75768;SDS011;64379;48.888;8.330;2024-01-30T10:17:47;15.82;;;7.90;;
75768;SDS011;64379;48.888;8.330;2024-01-30T10:20:12;13.48;;;6.22;;
75768;SDS011;64379;48.888;8.330;2024-01-30T10:22:39;13.77;;;5.78;;
75768;SDS011;64379;48.888;8.330;2024-01-30T10:25:09;14.82;;;5.93;;
75768;SDS011;64379;48.888;8.330;2024-01-30T10:27:35;14.77;;;5.97;;
75768;SDS011;64379;48.888;8.330;2024-01-30T10:30:00;13.57;;;5.88;;
75768;SDS011;64379;48.888;8.330;2024-01-30T10:32:26;13.57;;;5.93;;
75768;SDS011;64379;48.888;8.330;2024-01-30T10:34:52;13.18;;;5.50;;
75768;SDS011;64379;48.888;8.330;2024-01-30T10:37:18;15.88;;;6.18;;
75768;SDS011;64379;48.888;8.330;2024-01-30T10:39:46;15.05;;;6.28;;
75768;SDS011;64379;48.888;8.330;2024-01-30T10:42:18;16.67;;;5.10;;
75768;SDS011;64379;48.888;8.330;2024-01-30T10:47:12;12.00;;;5.03;;
75768;SDS011;64379;48.888;8.330;2024-01-30T10:49:41;12.88;;;5.28;;
75768;SDS011;64379;48.888;8.330;2024-01-30T10:52:08;11.18;;;5.35;;
75768;SDS011;64379;48.888;8.330;2024-01-30T10:54:35;12.43;;;4.80;;
75768;SDS011;64379;48.888;8.330;2024-01-30T10:57:02;10.82;;;5.13;;
75768;SDS011;64379;48.888;8.330;2024-01-30T10:59:29;11.00;;;4.72;;
75768;SDS011;64379;48.888;8.330;2024-01-30T11:01:57;10.57;;;4.72;;
75768;SDS011;64379;48.888;8.330;2024-01-30T11:04:24;9.40;;;4.80;;
75768;SDS011;64379;48.888;8.330;2024-01-30T11:06:50;8.40;;;4.22;;
75768;SDS011;64379;48.888;8.330;2024-01-30T11:09:17;9.63;;;4.60;;
75768;SDS011;64379;48.888;8.330;2024-01-30T11:11:56;7.90;;;3.83;;
75768;SDS011;64379;48.888;8.330;2024-01-30T11:14:26;10.93;;;3.85;;
75768;SDS011;64379;48.888;8.330;2024-01-30T11:16:56;8.88;;;3.85;;
75768;SDS011;64379;48.888;8.330;2024-01-30T11:19:25;8.77;;;4.15;;
75768;SDS011;64379;48.888;8.330;2024-01-30T11:21:55;9.13;;;3.45;;
75768;SDS011;64379;48.888;8.330;2024-01-30T11:24:22;9.50;;;3.83;;
75768;SDS011;64379;48.888;8.330;2024-01-30T11:26:48;9.05;;;3.90;;
75768;SDS011;64379;48.888;8.330;2024-01-30T11:29:16;9.23;;;3.70;;
75768;SDS011;64379;48.888;8.330;2024-01-30T11:31:55;8.90;;;4.07;;
75768;SDS011;64379;48.888;8.330;2024-01-30T11:34:21;10.00;;;4.35;;
75768;SDS011;64379;48.888;8.330;2024-01-30T11:36:48;11.80;;;4.95;;
75768;SDS011;64379;48.888;8.330;2024-01-30T11:39:36;8.95;;;4.43;;
75768;SDS011;64379;48.888;8.330;2024-01-30T11:42:02;9.70;;;4.50;;
75768;SDS011;64379;48.888;8.330;2024-01-30T11:44:30;11.60;;;4.50;;
75768;SDS011;64379;48.888;8.330;2024-01-30T11:46:56;12.25;;;5.45;;
75768;SDS011;64379;48.888;8.330;2024-01-30T11:49:21;10.63;;;4.60;;
75768;SDS011;64379;48.888;8.330;2024-01-30T11:51:48;10.13;;;4.40;;
75768;SDS011;64379;48.888;8.330;2024-01-30T11:54:15;9.00;;;4.35;;
75768;SDS011;64379;48.888;8.330;2024-01-30T11:56:41;10.50;;;4.15;;
75768;SDS011;64379;48.888;8.330;2024-01-30T11:59:08;7.72;;;3.83;;
75768;SDS011;64379;48.888;8.330;2024-01-30T12:01:33;9.73;;;4.68;;
75768;SDS011;64379;48.888;8.330;2024-01-30T12:03:59;9.50;;;4.75;;
75768;SDS011;64379;48.888;8.330;2024-01-30T12:06:25;11.63;;;4.80;;
75768;SDS011;64379;48.888;8.330;2024-01-30T12:09:01;9.13;;;4.32;;
75768;SDS011;64379;48.888;8.330;2024-01-30T12:11:31;11.10;;;4.00;;
75768;SDS011;64379;48.888;8.330;2024-01-30T12:13:57;10.23;;;3.67;;
75768;SDS011;64379;48.888;8.330;2024-01-30T12:16:22;10.85;;;4.25;;
75768;SDS011;64379;48.888;8.330;2024-01-30T12:18:48;8.25;;;3.95;;
75768;SDS011;64379;48.888;8.330;2024-01-30T12:21:17;9.88;;;3.78;;
75768;SDS011;64379;48.888;8.330;2024-01-30T12:23:43;9.10;;;4.50;;
75768;SDS011;64379;48.888;8.330;2024-01-30T12:26:09;5.85;;;2.78;;
75768;SDS011;64379;48.888;8.330;2024-01-30T12:28:36;7.97;;;3.35;;
75768;SDS011;64379;48.888;8.330;2024-01-30T12:31:02;7.60;;;3.67;;
75768;SDS011;64379;48.888;8.330;2024-01-30T12:33:28;9.80;;;3.80;;
75768;SDS011;64379;48.888;8.330;2024-01-30T12:35:55;6.30;;;2.97;;
75768;SDS011;64379;48.888;8.330;2024-01-30T12:38:21;9.20;;;4.20;;
75768;SDS011;64379;48.888;8.330;2024-01-30T12:40:48;8.77;;;4.05;;
75768;SDS011;64379;48.888;8.330;2024-01-30T12:43:15;8.55;;;3.47;;
75768;SDS011;64379;48.888;8.330;2024-01-30T12:45:41;13.32;;;4.70;;
75768;SDS011;64379;48.888;8.330;2024-01-30T12:48:07;7.30;;;4.03;;
75768;SDS011;64379;48.888;8.330;2024-01-30T12:50:33;8.73;;;4.50;;
75768;SDS011;64379;48.888;8.330;2024-01-30T12:52:59;10.50;;;4.53;;
75768;SDS011;64379;48.888;8.330;2024-01-30T12:55:25;10.02;;;5.22;;
75768;SDS011;64379;48.888;8.330;2024-01-30T12:57:53;12.73;;;4.68;;
75768;SDS011;64379;48.888;8.330;2024-01-30T13:00:19;11.88;;;4.97;;
75768;SDS011;64379;48.888;8.330;2024-01-30T13:02:45;11.95;;;4.88;;
75768;SDS011;64379;48.888;8.330;2024-01-30T13:05:12;12.68;;;4.50;;
75768;SDS011;64379;48.888;8.330;2024-01-30T13:07:38;12.27;;;4.95;;
75768;SDS011;64379;48.888;8.330;2024-01-30T13:10:03;11.85;;;4.78;;
75768;SDS011;64379;48.888;8.330;2024-01-30T13:12:29;11.10;;;4.80;;
75768;SDS011;64379;48.888;8.330;2024-01-30T13:14:57;9.77;;;4.18;;
75768;SDS011;64379;48.888;8.330;2024-01-30T13:17:23;10.45;;;4.63;;
75768;SDS011;64379;48.888;8.330;2024-01-30T13:19:49;11.65;;;4.70;;
75768;SDS011;64379;48.888;8.330;2024-01-30T13:22:15;9.75;;;4.50;;
75768;SDS011;64379;48.888;8.330;2024-01-30T13:24:40;10.70;;;4.65;;
75768;SDS011;64379;48.888;8.330;2024-01-30T13:27:06;9.43;;;4.55;;
75768;SDS011;64379;48.888;8.330;2024-01-30T13:29:33;8.82;;;4.32;;
75768;SDS011;64379;48.888;8.330;2024-01-30T13:31:59;10.10;;;4.60;;
75768;SDS011;64379;48.888;8.330;2024-01-30T13:34:25;9.80;;;4.25;;
75768;SDS011;64379;48.888;8.330;2024-01-30T13:36:50;11.27;;;4.82;;
75768;SDS011;64379;48.888;8.330;2024-01-30T13:39:16;10.32;;;4.88;;
75768;SDS011;64379;48.888;8.330;2024-01-30T13:41:42;12.40;;;5.32;;
75768;SDS011;64379;48.888;8.330;2024-01-30T13:44:08;12.95;;;5.22;;
75768;SDS011;64379;48.888;8.330;2024-01-30T13:46:34;11.45;;;5.30;;
75768;SDS011;64379;48.888;8.330;2024-01-30T13:49:01;12.75;;;6.13;;
75768;SDS011;64379;48.888;8.330;2024-01-30T13:51:27;12.73;;;5.15;;
75768;SDS011;64379;48.888;8.330;2024-01-30T13:53:52;12.23;;;6.28;;
75768;SDS011;64379;48.888;8.330;2024-01-30T13:56:19;12.63;;;5.57;;
75768;SDS011;64379;48.888;8.330;2024-01-30T13:58:45;10.73;;;5.45;;
75768;SDS011;64379;48.888;8.330;2024-01-30T14:01:13;11.38;;;5.85;;
75768;SDS011;64379;48.888;8.330;2024-01-30T14:03:39;12.00;;;5.60;;
75768;SDS011;64379;48.888;8.330;2024-01-30T14:06:05;11.57;;;6.03;;
75768;SDS011;64379;48.888;8.330;2024-01-30T14:08:31;11.70;;;5.60;;
75768;SDS011;64379;48.888;8.330;2024-01-30T14:10:57;12.15;;;5.65;;
75768;SDS011;64379;48.888;8.330;2024-01-30T14:13:23;10.13;;;5.13;;
75768;SDS011;64379;48.888;8.330;2024-01-30T14:15:50;12.45;;;5.90;;
75768;SDS011;64379;48.888;8.330;2024-01-30T14:18:18;11.07;;;5.70;;
75768;SDS011;64379;48.888;8.330;2024-01-30T14:20:44;12.23;;;6.18;;
75768;SDS011;64379;48.888;8.330;2024-01-30T14:23:10;15.27;;;6.30;;
75768;SDS011;64379;48.888;8.330;2024-01-30T14:25:35;11.65;;;4.97;;
75768;SDS011;64379;48.888;8.330;2024-01-30T14:28:01;12.77;;;5.45;;
75768;SDS011;64379;48.888;8.330;2024-01-30T14:30:26;12.55;;;5.03;;
75768;SDS011;64379;48.888;8.330;2024-01-30T14:32:52;12.07;;;5.25;;
75768;SDS011;64379;48.888;8.330;2024-01-30T14:35:18;10.13;;;4.38;;
75768;SDS011;64379;48.888;8.330;2024-01-30T14:37:44;11.05;;;4.07;;
75768;SDS011;64379;48.888;8.330;2024-01-30T14:40:10;11.95;;;4.90;;
75768;SDS011;64379;48.888;8.330;2024-01-30T14:42:36;10.48;;;4.50;;